Time;durP1;ratioP1;P1;durP2;ratioP2;P2;SDS_P1;SDS_P2;PMS_P1;PMS_P2;Temp;Humidity;BMP_temperature;BMP_pressure;BME280_temperature;BME280_humidity;BME280_pressure;Samples;Min_cycle;Max_cycle;Signal;HPM_P1;HPM_P2
2022/10/31 00:03:54;;;;;;;52.40;39.10;;;;;;;8.76;82.14;100131.11;208840;1287;140696;-74
2022/10/31 00:09:00;;;;;;;55.20;39.70;;;;;;;8.74;82.03;100136.60;210009;1303;140637;-81
2022/10/31 00:14:04;;;;;;;55.70;40.00;;;;;;;8.69;81.69;100137.40;209659;1295;141364;-79
2022/10/31 00:19:07;;;;;;;52.20;36.30;;;;;;;8.59;81.82;100139.05;209991;1288;140243;-74
2022/10/31 00:24:11;;;;;;;61.20;41.20;;;;;;;8.52;81.71;100139.55;209470;1289;139714;-75
2022/10/31 00:29:14;;;;;;;67.40;41.50;;;;;;;8.46;82.03;100138.71;210158;1295;139698;-69
2022/10/31 00:34:21;;;;;;;63.80;41.30;;;;;;;8.38;81.75;100139.17;209012;1296;140835;-72
2022/10/31 00:39:25;;;;;;;61.80;42.80;;;;;;;8.34;81.85;100146.38;209334;1292;141114;-77
2022/10/31 00:44:28;;;;;;;80.30;45.30;;;;;;;8.26;81.63;100146.67;210137;1297;141618;-76
2022/10/31 00:49:31;;;;;;;60.90;41.90;;;;;;;8.24;81.89;100148.36;209773;1298;140604;-75
2022/10/31 00:54:35;;;;;;;62.90;44.50;;;;;;;8.29;82.09;100149.52;210171;1295;140021;-79
2022/10/31 00:59:38;;;;;;;65.30;43.30;;;;;;;8.32;82.27;100152.30;208823;1293;140426;-70
2022/10/31 01:04:42;;;;;;;71.90;44.50;;;;;;;8.26;82.18;100157.05;210081;1292;141644;-80
2022/10/31 01:09:46;;;;;;;60.90;42.30;;;;;;;8.18;82.14;100159.70;210039;1292;140706;-77
2022/10/31 01:14:49;;;;;;;56.90;38.70;;;;;;;8.12;81.96;100153.75;210148;1297;140133;-77
2022/10/31 01:19:52;;;;;;;46.00;34.40;;;;;;;8.09;82.43;100153.55;210009;1287;140334;-78
2022/10/31 01:24:55;;;;;;;51.90;40.50;;;;;;;8.07;82.37;100145.17;210013;1288;142245;-76
2022/10/31 01:29:59;;;;;;;51.80;39.00;;;;;;;8.09;82.44;100141.98;210163;1287;141141;-75
2022/10/31 01:35:03;;;;;;;56.00;41.00;;;;;;;8.11;83.02;100144.88;210011;1296;142064;-68
2022/10/31 01:40:07;;;;;;;54.90;38.20;;;;;;;8.18;83.09;100142.13;210028;1295;140287;-74
2022/10/31 01:45:15;;;;;;;50.20;35.90;;;;;;;8.16;82.62;100139.65;209897;1289;141202;-74
2022/10/31 01:50:34;;;;;;;49.10;34.10;;;;;;;8.11;82.70;100140.48;210045;1302;141823;-73
2022/10/31 01:55:44;;;;;;;59.10;40.10;;;;;;;8.14;82.91;100140.23;209802;1290;140559;-72
2022/10/31 02:00:54;;;;;;;51.10;32.30;;;;;;;8.14;82.84;100139.56;210036;1294;139435;-73
2022/10/31 02:05:59;;;;;;;60.40;39.00;;;;;;;8.01;82.47;100136.94;210029;1292;141609;-71
2022/10/31 02:11:02;;;;;;;56.10;35.40;;;;;;;7.93;82.42;100140.16;210223;1291;140232;-71
2022/10/31 02:16:09;;;;;;;62.00;38.40;;;;;;;7.95;82.87;100141.45;208493;1288;140733;-72
2022/10/31 02:21:22;;;;;;;50.60;35.60;;;;;;;7.99;82.73;100145.64;210063;1297;140702;-72
2022/10/31 02:26:32;;;;;;;56.10;35.10;;;;;;;7.91;82.49;100143.70;207709;1289;139701;-70
2022/10/31 02:31:36;;;;;;;51.90;37.30;;;;;;;7.77;82.37;100144.13;210296;1294;140373;-78
2022/10/31 02:37:08;;;;;;;54.40;36.70;;;;;;;7.73;82.88;100142.46;210157;1293;140693;-73
2022/10/31 02:42:26;;;;;;;44.10;31.20;;;;;;;7.82;83.47;100144.66;210200;1294;142516;-72
2022/10/31 02:47:36;;;;;;;41.60;30.80;;;;;;;7.95;83.72;100142.47;210486;1294;141456;-72
2022/10/31 02:52:40;;;;;;;39.00;29.80;;;;;;;7.96;83.02;100149.24;210253;1290;139420;-71
2022/10/31 02:57:44;;;;;;;40.40;28.30;;;;;;;7.89;83.24;100147.11;210242;1295;140402;-72
2022/10/31 03:03:10;;;;;;;29.20;22.70;;;;;;;7.83;83.11;100147.47;210012;1294;139534;-73
2022/10/31 03:08:27;;;;;;;25.40;20.60;;;;;;;7.66;82.92;100144.91;210291;1302;211044;-72
2022/10/31 03:14:08;;;;;;;27.60;21.10;;;;;;;7.53;83.50;100153.96;210280;1294;140850;-72
2022/10/31 03:19:31;;;;;;;23.10;20.40;;;;;;;7.46;83.70;100158.73;210225;1301;140723;-72
2022/10/31 03:24:39;;;;;;;28.00;21.50;;;;;;;7.46;84.04;100156.07;210176;1294;140347;-73
2022/10/31 03:29:44;;;;;;;24.80;20.30;;;;;;;7.50;84.19;100160.84;210088;1291;141576;-72
2022/10/31 03:34:51;;;;;;;24.20;20.60;;;;;;;7.54;83.95;100160.45;210169;1297;141444;-71
2022/10/31 03:39:58;;;;;;;36.70;28.20;;;;;;;7.60;84.34;100166.86;210118;1288;142126;-72
2022/10/31 03:45:09;;;;;;;37.70;27.50;;;;;;;7.69;84.33;100170.22;208113;1301;140038;-71
2022/10/31 03:50:16;;;;;;;46.60;29.90;;;;;;;7.76;84.62;100170.84;210061;1301;140154;-69
2022/10/31 03:55:42;;;;;;;38.30;27.50;;;;;;;7.82;84.31;100181.94;210073;1293;141386;-70
2022/10/31 04:00:50;;;;;;;44.90;32.60;;;;;;;7.87;84.25;100181.65;210088;1303;208277;-69
2022/10/31 04:06:00;;;;;;;42.90;29.10;;;;;;;7.90;84.51;100185.09;210345;1288;139805;-69
2022/10/31 04:11:06;;;;;;;42.80;29.90;;;;;;;7.93;84.20;100189.00;210213;1302;140643;-69
2022/10/31 04:16:13;;;;;;;38.00;27.60;;;;;;;7.97;84.57;100192.03;209077;1301;141028;-71
2022/10/31 04:21:26;;;;;;;36.20;27.20;;;;;;;8.02;84.42;100190.92;210194;1295;140423;-70
2022/10/31 04:26:30;;;;;;;38.60;29.70;;;;;;;8.08;84.54;100192.23;209837;1292;141108;-71
2022/10/31 04:31:35;;;;;;;20.70;18.50;;;;;;;8.15;84.85;100189.20;210215;1301;151892;-70
2022/10/31 04:36:39;;;;;;;21.60;19.30;;;;;;;8.05;84.46;100184.64;209993;1297;158883;-71
2022/10/31 04:41:43;;;;;;;23.70;20.00;;;;;;;7.98;84.89;100185.95;209503;1289;142358;-71
2022/10/31 04:46:47;;;;;;;23.00;20.10;;;;;;;8.01;85.15;100190.89;209849;1288;140080;-68
2022/10/31 04:51:51;;;;;;;24.20;21.70;;;;;;;8.13;85.39;100194.77;210309;1295;141839;-70
2022/10/31 04:56:55;;;;;;;27.40;23.10;;;;;;;8.27;85.39;100194.45;210374;1296;140808;-74
2022/10/31 05:02:01;;;;;;;31.60;23.90;;;;;;;8.37;85.23;100193.38;210061;1291;140434;-73
2022/10/31 05:07:06;;;;;;;34.30;26.60;;;;;;;8.46;85.67;100193.96;210110;1301;140584;-75
2022/10/31 05:12:10;;;;;;;28.70;24.30;;;;;;;8.54;85.27;100201.05;210162;1295;140314;-74
2022/10/31 05:17:15;;;;;;;29.50;23.90;;;;;;;8.57;85.31;100204.09;210118;1295;140208;-72
2022/10/31 05:22:19;;;;;;;32.80;25.30;;;;;;;8.63;85.47;100208.23;209875;1301;141599;-72
2022/10/31 05:27:23;;;;;;;30.60;23.90;;;;;;;8.65;85.12;100207.73;210197;1289;139764;-72
2022/10/31 05:32:29;;;;;;;36.20;25.60;;;;;;;8.59;84.93;100211.08;210109;1301;139389;-72
2022/10/31 05:37:35;;;;;;;33.50;25.90;;;;;;;8.56;84.81;100210.74;210174;1295;140486;-73
2022/10/31 05:42:40;;;;;;;32.20;24.50;;;;;;;8.52;84.95;100211.00;209964;1301;141005;-72
2022/10/31 05:47:54;;;;;;;34.40;24.30;;;;;;;8.50;84.67;100209.95;210304;1300;141407;-69
2022/10/31 05:53:01;;;;;;;33.50;25.10;;;;;;;8.51;85.03;100213.37;210232;1295;142038;-74
2022/10/31 05:58:05;;;;;;;32.20;27.00;;;;;;;8.57;85.24;100211.33;210275;1293;161360;-76
2022/10/31 06:03:11;;;;;;;27.10;23.50;;;;;;;8.63;85.45;100209.50;209941;1296;140685;-75
2022/10/31 06:08:14;;;;;;;25.60;20.10;;;;;;;8.72;85.54;100208.41;210192;1292;140649;-68
2022/10/31 06:13:18;;;;;;;30.60;22.10;;;;;;;8.78;85.87;100215.84;210225;1291;231708;-72
2022/10/31 06:18:24;;;;;;;25.60;20.80;;;;;;;8.85;86.15;100222.32;209871;1287;140327;-73
2022/10/31 06:23:28;;;;;;;29.80;21.80;;;;;;;8.92;86.43;100224.92;209547;1295;141814;-73
2022/10/31 06:28:33;;;;;;;23.20;19.00;;;;;;;9.00;86.36;100225.83;208748;1300;501363;-71
2022/10/31 06:33:37;;;;;;;24.90;21.50;;;;;;;9.05;86.52;100231.66;210103;1301;140958;-67
2022/10/31 06:38:40;;;;;;;28.40;23.30;;;;;;;9.10;86.79;100235.94;209622;1300;141055;-71
2022/10/31 06:43:47;;;;;;;29.00;21.50;;;;;;;9.23;87.07;100243.38;208712;1293;140884;-70
2022/10/31 06:48:51;;;;;;;30.90;21.60;;;;;;;9.39;87.38;100248.33;210274;1294;140738;-69
2022/10/31 06:53:55;;;;;;;28.30;20.70;;;;;;;9.60;87.62;100252.56;208186;1293;140908;-68
2022/10/31 06:59:00;;;;;;;25.00;20.40;;;;;;;9.76;87.64;100258.06;209735;1297;140264;-69
2022/10/31 07:04:04;;;;;;;25.30;20.00;;;;;;;9.92;87.69;100263.54;210105;1303;141108;-68
2022/10/31 07:09:09;;;;;;;28.30;20.60;;;;;;;10.06;87.75;100263.67;210209;1293;140935;-70
2022/10/31 07:14:13;;;;;;;28.10;23.50;;;;;;;10.16;87.50;100272.06;210126;1301;142084;-70
2022/10/31 07:19:17;;;;;;;28.50;21.50;;;;;;;10.31;87.87;100273.85;209872;1303;142500;-72
2022/10/31 07:24:20;;;;;;;26.70;22.70;;;;;;;10.50;88.13;100278.11;210194;1288;141391;-72
2022/10/31 07:29:23;;;;;;;28.60;23.00;;;;;;;10.73;88.25;100281.52;210307;1303;151662;-76
2022/10/31 07:34:28;;;;;;;26.30;21.40;;;;;;;10.94;88.17;100283.98;210112;1295;153786;-71
2022/10/31 07:39:33;;;;;;;25.80;20.90;;;;;;;11.15;88.20;100293.86;210101;1299;142149;-70
2022/10/31 07:44:37;;;;;;;27.50;22.30;;;;;;;11.35;88.05;100300.33;210147;1288;141582;-70
2022/10/31 07:49:41;;;;;;;23.10;18.10;;;;;;;11.53;87.84;100309.05;209954;1295;140912;-70
2022/10/31 07:54:44;;;;;;;24.70;20.10;;;;;;;11.63;87.56;100311.15;210182;1295;140590;-70
2022/10/31 07:59:48;;;;;;;24.20;19.80;;;;;;;11.71;87.65;100310.96;210390;1294;140175;-70
2022/10/31 08:04:54;;;;;;;25.00;20.90;;;;;;;11.88;87.97;100306.11;210291;1301;141230;-73
2022/10/31 08:10:04;;;;;;;26.00;20.40;;;;;;;12.01;87.43;100304.19;210091;1301;140928;-71
2022/10/31 08:15:08;;;;;;;19.90;17.90;;;;;;;12.14;87.54;100307.48;210197;1302;142677;-75
2022/10/31 08:20:15;;;;;;;24.90;19.70;;;;;;;12.21;87.41;100307.24;209865;1294;141757;-79
2022/10/31 08:25:18;;;;;;;21.70;19.20;;;;;;;12.39;87.89;100306.27;210018;1301;140972;-73
2022/10/31 08:30:25;;;;;;;19.60;16.40;;;;;;;12.63;87.59;100301.55;209581;1299;140769;-72
2022/10/31 08:35:29;;;;;;;19.60;17.00;;;;;;;12.81;87.44;100300.94;208487;1296;140512;-72
2022/10/31 08:40:33;;;;;;;24.60;18.70;;;;;;;12.86;87.16;100303.13;209760;1298;141277;-68
2022/10/31 08:45:38;;;;;;;22.10;18.90;;;;;;;12.96;87.18;100302.73;210166;1298;141315;-71
2022/10/31 08:50:44;;;;;;;25.70;18.90;;;;;;;13.12;87.29;100306.09;210139;1301;141567;-70
2022/10/31 08:55:48;;;;;;;21.70;19.30;;;;;;;13.33;87.33;100307.80;209840;1296;142245;-72
2022/10/31 09:00:56;;;;;;;26.50;18.30;;;;;;;13.54;87.41;100311.14;210202;1293;139827;-71
2022/10/31 09:06:03;;;;;;;25.70;20.00;;;;;;;13.66;87.07;100311.69;210233;1296;140805;-72
2022/10/31 09:11:07;;;;;;;27.00;22.00;;;;;;;13.81;87.12;100315.30;209919;1296;140334;-74
2022/10/31 09:16:16;;;;;;;31.70;23.60;;;;;;;13.96;86.77;100318.14;209878;1295;140989;-74
2022/10/31 09:21:20;;;;;;;26.90;22.00;;;;;;;14.06;86.86;100318.10;210021;1302;143093;-72
2022/10/31 09:26:27;;;;;;;31.80;24.70;;;;;;;14.23;86.94;100322.92;209859;1287;141071;-70
2022/10/31 09:31:32;;;;;;;31.20;22.20;;;;;;;14.41;86.91;100316.67;209823;1295;141224;-74
2022/10/31 09:36:37;;;;;;;29.60;21.40;;;;;;;14.52;86.61;100316.04;210077;1301;140117;-74
2022/10/31 09:42:06;;;;;;;22.10;18.70;;;;;;;14.50;86.08;100319.77;210066;1294;140049;-77
2022/10/31 09:47:25;;;;;;;28.50;24.40;;;;;;;14.44;86.00;100321.02;210094;1295;235628;-81
2022/10/31 09:52:32;;;;;;;37.50;25.40;;;;;;;14.58;86.31;100321.88;210008;1294;141871;-76
2022/10/31 09:57:37;;;;;;;37.00;25.20;;;;;;;14.72;86.41;100325.44;210253;1294;141239;-80
2022/10/31 10:03:07;;;;;;;36.30;26.70;;;;;;;14.89;86.34;100328.11;209772;1296;140679;-77
2022/10/31 10:08:23;;;;;;;38.60;25.50;;;;;;;15.06;86.35;100330.98;210140;1298;141117;-80
2022/10/31 10:14:04;;;;;;;29.60;24.10;;;;;;;15.26;86.38;100328.23;210031;1295;140494;-74
2022/10/31 10:19:19;;;;;;;31.90;25.60;;;;;;;15.44;86.24;100320.86;209119;1281;140015;-69
2022/10/31 10:24:53;;;;;;;40.10;27.20;;;;;;;15.55;85.93;100322.63;209989;1295;140279;-75
2022/10/31 10:30:02;;;;;;;33.30;25.20;;;;;;;15.73;85.82;100324.04;210087;1303;141369;-75
2022/10/31 10:35:31;;;;;;;35.90;22.40;;;;;;;15.86;85.32;100327.18;209867;1295;141394;-70
2022/10/31 10:40:37;;;;;;;41.00;29.00;;;;;;;15.97;85.24;100321.73;210170;1295;140450;-79
2022/10/31 10:51:22;;;;;;;41.30;27.50;;;;;;;16.13;84.60;100323.05;209611;1290;141908;-74
2022/10/31 10:57:28;;;;;;;44.50;25.90;;;;;;;16.15;84.40;100322.73;210211;1301;142143;-77
2022/10/31 11:02:35;;;;;;;47.10;28.80;;;;;;;16.22;84.26;100319.55;210202;1301;140990;-74
2022/10/31 11:07:41;;;;;;;44.40;28.30;;;;;;;16.23;84.00;100323.76;210131;1302;220609;-75
2022/10/31 11:13:12;;;;;;;47.80;30.70;;;;;;;16.28;84.00;100326.38;210005;1294;141170;-76
2022/10/31 11:18:25;;;;;;;45.60;31.30;;;;;;;16.32;83.93;100322.71;210009;1297;141702;-77
2022/10/31 11:23:28;;;;;;;41.80;29.50;;;;;;;16.38;83.76;100319.80;210139;1280;142348;-76
2022/10/31 11:28:37;;;;;;;49.70;31.70;;;;;;;16.36;83.50;100324.23;210036;1295;140024;-75
2022/10/31 11:33:47;;;;;;;43.00;29.90;;;;;;;16.32;83.49;100320.13;209591;1281;140873;-72
2022/10/31 11:38:52;;;;;;;45.00;29.40;;;;;;;16.28;83.45;100323.41;209629;1297;141177;-74
2022/10/31 11:44:21;;;;;;;48.60;27.80;;;;;;;16.35;83.71;100319.02;210008;1281;141116;-79
2022/10/31 11:49:46;;;;;;;39.00;29.00;;;;;;;16.50;83.75;100312.23;209550;1298;141123;-76
2022/10/31 11:55:13;;;;;;;41.30;28.30;;;;;;;16.62;83.70;100313.11;210217;1296;140503;-78
2022/10/31 12:00:22;;;;;;;39.80;28.20;;;;;;;16.63;83.26;100315.77;210209;1301;139730;-72
2022/10/31 12:05:33;;;;;;;40.60;28.10;;;;;;;16.67;82.80;100313.77;210319;1296;141490;-76
2022/10/31 12:11:11;;;;;;;41.60;28.40;;;;;;;16.77;83.05;100311.07;210090;1289;141200;-75
2022/10/31 12:16:17;;;;;;;45.30;27.50;;;;;;;17.03;82.84;100311.03;209665;1298;140417;-81
2022/10/31 12:21:27;;;;;;;43.50;28.70;;;;;;;17.12;82.63;100309.73;210061;1296;140333;-76
2022/10/31 12:26:31;;;;;;;39.10;28.00;;;;;;;17.18;82.30;100300.15;210012;1287;140681;-80
2022/10/31 12:31:54;;;;;;;38.90;26.90;;;;;;;17.24;82.21;100298.92;209881;1295;141318;-74
2022/10/31 12:37:19;;;;;;;42.50;28.70;;;;;;;17.37;82.26;100291.65;210030;1289;142090;-77
2022/10/31 12:42:49;;;;;;;39.40;26.90;;;;;;;17.45;81.79;100291.33;210144;1301;141513;-77
2022/10/31 12:48:07;;;;;;;42.40;26.10;;;;;;;17.49;81.52;100292.20;209962;1299;140832;-75
2022/10/31 12:53:43;;;;;;;31.70;25.20;;;;;;;17.53;81.34;100288.98;210085;1295;140340;-75
2022/10/31 12:59:04;;;;;;;39.50;27.50;;;;;;;17.65;81.67;100285.41;209726;1298;140950;-76
2022/10/31 13:04:35;;;;;;;34.50;26.10;;;;;;;17.75;81.36;100285.95;210090;1287;151058;-77
2022/10/31 13:09:48;;;;;;;38.60;26.60;;;;;;;17.85;81.13;100280.84;210088;1294;140464;-76
2022/10/31 13:14:56;;;;;;;38.20;25.60;;;;;;;17.90;80.95;100279.12;210017;1294;140059;-76
2022/10/31 13:20:16;;;;;;;38.70;26.80;;;;;;;17.96;80.52;100283.17;210171;1299;140841;-72
2022/10/31 13:25:31;;;;;;;38.40;28.00;;;;;;;17.96;80.43;100287.55;210118;1295;142231;-73
2022/10/31 13:30:41;;;;;;;37.70;25.90;;;;;;;17.91;80.07;100283.60;210012;1295;140068;-73
2022/10/31 13:36:09;;;;;;;38.50;26.50;;;;;;;17.90;80.01;100283.65;210019;1290;141915;-72
2022/10/31 13:41:32;;;;;;;47.60;27.30;;;;;;;17.86;79.93;100280.63;210032;1299;140262;-73
2022/10/31 13:46:37;;;;;;;36.20;27.10;;;;;;;17.84;80.07;100282.73;210109;1288;140571;-73
2022/10/31 13:51:42;;;;;;;45.40;26.00;;;;;;;17.85;80.15;100279.81;209960;1297;140175;-74
2022/10/31 13:56:51;;;;;;;36.90;27.40;;;;;;;17.85;79.69;100280.90;210180;1302;140336;-74
2022/10/31 14:02:13;;;;;;;39.50;28.40;;;;;;;17.78;79.54;100290.54;210297;1293;141096;-74
2022/10/31 14:07:21;;;;;;;36.10;28.80;;;;;;;17.67;79.40;100293.83;210013;1291;140136;-74
2022/10/31 14:12:41;;;;;;;39.30;27.10;;;;;;;17.58;79.46;100288.34;209966;1296;140110;-73
2022/10/31 14:17:58;;;;;;;38.10;24.60;;;;;;;17.52;79.22;100290.48;209856;1294;141087;-72
2022/10/31 14:23:33;;;;;;;40.30;26.10;;;;;;;17.44;79.05;100295.38;210002;1295;140482;-74
2022/10/31 14:28:37;;;;;;;37.80;27.20;;;;;;;17.30;79.09;100291.41;210067;1302;139756;-72
2022/10/31 14:33:42;;;;;;;43.60;27.10;;;;;;;17.13;79.09;100295.44;209897;1289;139915;-75
2022/10/31 14:39:24;;;;;;;43.10;24.90;;;;;;;16.94;79.10;100291.28;210090;1287;140896;-74
2022/10/31 14:44:59;;;;;;;40.20;27.50;;;;;;;16.77;79.04;100288.08;209570;1295;225826;-78
2022/10/31 14:50:12;;;;;;;38.00;24.00;;;;;;;16.60;79.17;100283.34;210220;1294;140387;-76
2022/10/31 14:55:18;;;;;;;33.70;23.00;;;;;;;16.40;79.08;100273.37;209553;1293;140200;-71
2022/10/31 15:00:24;;;;;;;27.70;22.50;;;;;;;16.23;78.93;100272.83;209322;1293;139991;-74
2022/10/31 15:05:29;;;;;;;41.80;23.20;;;;;;;16.03;78.80;100275.86;210220;1297;141687;-78
2022/10/31 15:10:37;;;;;;;28.20;21.80;;;;;;;15.83;78.59;100276.33;210098;1297;140990;-78
2022/10/31 15:15:41;;;;;;;32.40;22.10;;;;;;;15.60;78.63;100274.23;209542;1296;140340;-76
2022/10/31 15:20:46;;;;;;;28.00;21.80;;;;;;;15.39;78.47;100273.31;210089;1295;140848;-75
2022/10/31 15:26:00;;;;;;;31.10;20.20;;;;;;;15.18;78.35;100272.17;210080;1287;140620;-75
2022/10/31 15:31:17;;;;;;;26.40;20.00;;;;;;;14.95;78.24;100274.64;209029;1293;139888;-73
2022/10/31 15:36:26;;;;;;;29.10;19.80;;;;;;;14.71;78.14;100274.61;210040;1287;140419;-73
2022/10/31 15:41:53;;;;;;;31.30;19.10;;;;;;;14.53;78.25;100272.82;210102;1289;140312;-74
2022/10/31 15:47:04;;;;;;;24.60;17.30;;;;;;;14.32;77.96;100274.16;208835;1294;142625;-71
2022/10/31 15:52:22;;;;;;;26.40;18.00;;;;;;;14.13;77.91;100279.39;209773;1278;140048;-74
2022/10/31 15:57:27;;;;;;;22.70;18.10;;;;;;;13.93;77.84;100279.55;210013;1299;139763;-74
2022/10/31 16:02:32;;;;;;;28.20;18.70;;;;;;;13.73;77.54;100282.38;210033;1297;140222;-70
2022/10/31 16:07:48;;;;;;;24.50;17.60;;;;;;;13.60;78.08;100282.85;210168;1297;141010;-75
2022/10/31 16:12:52;;;;;;;31.90;19.70;;;;;;;13.48;78.03;100284.83;210067;1296;141147;-75
2022/10/31 16:17:57;;;;;;;41.80;25.20;;;;;;;13.35;78.40;100288.34;210111;1296;141500;-73
2022/10/31 16:23:03;;;;;;;49.40;28.70;;;;;;;13.28;78.61;100290.98;209912;1296;140316;-72
2022/10/31 16:28:34;;;;;;;50.70;34.30;;;;;;;13.26;78.98;100294.91;209863;1289;140220;-70
2022/10/31 16:33:43;;;;;;;42.80;25.90;;;;;;;13.20;78.99;100299.71;210009;1290;142343;-74
2022/10/31 16:38:48;;;;;;;51.90;27.30;;;;;;;13.14;79.50;100305.48;209820;1293;141767;-72
2022/10/31 16:43:53;;;;;;;38.00;26.00;;;;;;;13.10;79.92;100308.14;210177;1295;141645;-75
2022/10/31 16:48:58;;;;;;;33.00;22.90;;;;;;;13.13;80.30;100312.70;209965;1292;141600;-74
2022/10/31 16:54:03;;;;;;;30.10;23.30;;;;;;;13.16;80.57;100313.02;209978;1301;142626;-73
2022/10/31 16:59:11;;;;;;;31.40;23.30;;;;;;;13.23;80.97;100317.49;209288;1296;141893;-72
2022/10/31 17:04:18;;;;;;;28.90;22.30;;;;;;;13.26;81.14;100317.71;209854;1289;141463;-79
2022/10/31 17:09:22;;;;;;;30.10;23.10;;;;;;;13.27;81.39;100316.34;210092;1296;139924;-79
2022/10/31 17:14:32;;;;;;;29.60;22.00;;;;;;;13.23;81.01;100313.16;210071;1297;140918;-80
2022/10/31 17:19:41;;;;;;;29.70;20.40;;;;;;;13.22;81.46;100317.36;209471;1293;141789;-81
2022/10/31 17:24:49;;;;;;;25.80;20.40;;;;;;;13.21;81.51;100319.55;210070;1288;248702;-81
2022/10/31 17:29:56;;;;;;;30.00;22.60;;;;;;;13.19;81.45;100321.81;207669;1287;151443;-82
2022/10/31 17:35:15;;;;;;;27.40;21.30;;;;;;;13.14;81.93;100320.79;210126;1296;140360;-70
2022/10/31 17:40:23;;;;;;;32.10;24.30;;;;;;;13.10;82.04;100324.41;209851;1297;141834;-78
2022/10/31 17:45:27;;;;;;;25.90;20.60;;;;;;;13.09;81.85;100319.25;209657;1297;140828;-79
2022/10/31 17:50:31;;;;;;;27.50;19.80;;;;;;;13.04;81.77;100323.26;210238;1296;141115;-78
2022/10/31 17:55:35;;;;;;;25.90;19.50;;;;;;;12.94;81.60;100322.71;209906;1296;142091;-77
2022/10/31 18:00:43;;;;;;;;;;;;;;;12.88;82.36;100320.13;210154;1297;139897;-84
2022/10/31 18:05:57;;;;;;;23.50;16.60;;;;;;;12.90;82.39;100313.14;210623;1298;126583;-74
2022/10/31 18:11:13;;;;;;;24.20;18.60;;;;;;;12.88;82.43;100314.87;209925;1297;142284;-78
2022/10/31 18:16:20;;;;;;;20.20;16.40;;;;;;;12.92;82.63;100320.75;209723;1296;140754;-79
2022/10/31 18:21:24;;;;;;;19.10;14.90;;;;;;;12.96;82.67;100319.45;209804;1295;141299;-69
2022/10/31 18:26:29;;;;;;;21.30;16.00;;;;;;;12.96;82.77;100319.38;209781;1296;299644;-73
2022/10/31 18:31:33;;;;;;;20.60;15.60;;;;;;;12.91;82.38;100319.38;209828;1297;140399;-79
2022/10/31 18:36:36;;;;;;;23.90;18.10;;;;;;;12.79;82.02;100321.40;210099;1302;142373;-74
2022/10/31 18:41:41;;;;;;;23.30;18.20;;;;;;;12.71;81.86;100319.49;210074;1296;141369;-76
2022/10/31 18:46:44;;;;;;;24.20;18.90;;;;;;;12.59;81.78;100318.00;210050;1298;141026;-77
2022/10/31 18:51:49;;;;;;;23.60;18.70;;;;;;;12.47;82.02;100315.86;209699;1298;139789;-80
2022/10/31 18:56:53;;;;;;;23.20;18.40;;;;;;;12.38;81.91;100312.35;209908;1287;152496;-77
2022/10/31 19:01:57;;;;;;;27.10;18.40;;;;;;;12.34;81.96;100310.64;209988;1303;141185;-74
2022/10/31 19:07:01;;;;;;;19.10;17.10;;;;;;;12.09;80.85;100307.70;209973;1297;141429;-72
2022/10/31 19:12:06;;;;;;;27.40;19.50;;;;;;;11.69;80.86;100302.87;210024;1296;141328;-81
2022/10/31 19:17:10;;;;;;;36.40;24.10;;;;;;;11.54;81.73;100300.53;209367;1303;141916;-76
2022/10/31 19:22:14;;;;;;;30.10;23.60;;;;;;;11.47;81.87;100299.73;209875;1296;141250;-76
2022/10/31 19:27:18;;;;;;;32.40;25.40;;;;;;;11.38;81.80;100295.92;209958;1290;154237;-72
2022/10/31 19:32:22;;;;;;;35.30;24.80;;;;;;;11.27;81.94;100294.34;210111;1296;140814;-73
2022/10/31 19:37:26;;;;;;;44.70;27.00;;;;;;;11.16;82.27;100293.23;210094;1297;140988;-71
2022/10/31 19:42:30;;;;;;;34.50;23.90;;;;;;;11.13;82.54;100295.29;210004;1298;141904;-71
2022/10/31 19:47:33;;;;;;;32.70;22.30;;;;;;;11.07;82.70;100291.54;209204;1287;140887;-73
2022/10/31 19:52:37;;;;;;;38.20;26.10;;;;;;;10.92;82.66;100289.76;210024;1287;140725;-74
2022/10/31 19:57:41;;;;;;;41.00;26.60;;;;;;;10.83;82.92;100287.89;209985;1295;140551;-73
2022/10/31 20:03:04;;;;;;;45.70;33.50;;;;;;;10.78;83.25;100283.95;208628;1296;141257;-76
2022/10/31 20:08:14;;;;;;;44.90;34.10;;;;;;;10.88;83.84;100285.26;208994;1292;143855;-70
2022/10/31 20:13:18;;;;;;;57.00;36.90;;;;;;;11.04;84.08;100287.02;210042;1289;141825;-70
2022/10/31 20:18:24;;;;;;;48.70;36.90;;;;;;;11.15;84.07;100280.41;210023;1297;140394;-70
2022/10/31 20:23:28;;;;;;;53.20;39.70;;;;;;;11.16;83.88;100277.77;210020;1293;141288;-76
2022/10/31 20:28:32;;;;;;;55.40;39.80;;;;;;;11.19;83.86;100274.65;209811;1299;140984;-71
2022/10/31 20:33:37;;;;;;;54.60;39.10;;;;;;;11.21;83.68;100271.67;210120;1303;141719;-73
2022/10/31 20:38:41;;;;;;;58.90;44.70;;;;;;;11.25;83.79;100271.02;209843;1296;140506;-75
2022/10/31 20:43:46;;;;;;;56.60;39.30;;;;;;;11.24;83.59;100266.84;210100;1295;152670;-73
2022/10/31 20:48:51;;;;;;;59.70;40.80;;;;;;;11.18;83.14;100261.44;210013;1295;142190;-74
2022/10/31 20:53:57;;;;;;;58.70;41.30;;;;;;;11.08;82.92;100252.69;209795;1300;145322;-74
2022/10/31 20:59:01;;;;;;;59.40;42.20;;;;;;;11.00;82.77;100254.48;209764;1297;141664;-74
2022/10/31 21:04:07;;;;;;;56.10;41.20;;;;;;;10.94;82.85;100252.40;210081;1288;142638;-69
2022/10/31 21:09:10;;;;;;;50.10;40.50;;;;;;;10.86;82.73;100251.70;210045;1285;139962;-69
2022/10/31 21:14:14;;;;;;;55.90;40.70;;;;;;;10.75;82.43;100254.46;209992;1293;141317;-69
2022/10/31 21:19:18;;;;;;;54.00;43.20;;;;;;;10.54;82.31;100255.85;209630;1303;141304;-74
2022/10/31 21:24:23;;;;;;;67.40;46.60;;;;;;;10.50;82.62;100252.77;208309;1294;140865;-70
2022/10/31 21:29:26;;;;;;;62.10;44.20;;;;;;;10.45;82.87;100251.26;209893;1297;141375;-74
2022/10/31 21:34:30;;;;;;;66.30;45.10;;;;;;;10.45;82.91;100248.96;207951;1283;141238;-74
2022/10/31 21:39:34;;;;;;;55.70;40.40;;;;;;;10.47;83.18;100240.75;209968;1298;142387;-76
2022/10/31 21:44:37;;;;;;;79.70;43.40;;;;;;;10.49;83.14;100236.31;209085;1297;141003;-71
2022/10/31 21:49:40;;;;;;;58.60;45.10;;;;;;;10.46;83.10;100234.98;209319;1287;140139;-77
2022/10/31 21:54:44;;;;;;;63.50;43.60;;;;;;;10.42;82.97;100237.45;210038;1294;139451;-72
2022/10/31 21:59:48;;;;;;;66.00;45.20;;;;;;;10.35;82.71;100232.41;209730;1290;140714;-76
2022/10/31 22:04:53;;;;;;;57.80;41.60;;;;;;;10.32;82.56;100228.95;209950;1296;223840;-71
2022/10/31 22:09:56;;;;;;;55.20;38.10;;;;;;;10.24;82.53;100229.14;209618;1294;141344;-71
2022/10/31 22:15:01;;;;;;;53.20;38.40;;;;;;;10.08;82.19;100223.45;209904;1296;141990;-70
2022/10/31 22:20:06;;;;;;;58.90;42.60;;;;;;;9.85;81.99;100218.29;209746;1297;141432;-71
2022/10/31 22:25:11;;;;;;;49.80;41.20;;;;;;;9.78;82.54;100214.20;209695;1302;141173;-73
2022/10/31 22:30:15;;;;;;;48.60;38.50;;;;;;;9.74;82.42;100213.27;210114;1295;142769;-76
2022/10/31 22:35:19;;;;;;;59.80;46.20;;;;;;;9.62;82.39;100207.25;209935;1298;140997;-73
2022/10/31 22:40:23;;;;;;;55.40;41.70;;;;;;;9.56;82.73;100209.60;209913;1296;140623;-74
2022/10/31 22:45:27;;;;;;;68.30;46.40;;;;;;;9.60;83.04;100206.62;209701;1295;141948;-74
2022/10/31 22:50:31;;;;;;;54.70;42.90;;;;;;;9.64;83.40;100201.55;209911;1297;140561;-70
2022/10/31 22:55:36;;;;;;;53.80;40.20;;;;;;;9.61;83.11;100197.31;209878;1302;140563;-72
2022/10/31 23:00:40;;;;;;;56.60;38.00;;;;;;;9.49;82.91;100189.27;209830;1296;141045;-74
2022/10/31 23:05:57;;;;;;;56.30;38.50;;;;;;;9.42;83.22;100192.02;209998;1295;140836;-76